Time;durP1;ratioP1;P1;durP2;ratioP2;P2;SDS_P1;SDS_P2;PMS_P1;PMS_P2;Temp;Humidity;BMP_temperature;BMP_pressure;BME280_temperature;BME280_humidity;BME280_pressure;Samples;Min_cycle;Max_cycle;Signal;HPM_P1;HPM_P2
2021/12/16 00:01:46;;;;;;;33.72;16.02;;;;;;;10.79;70.32;102672.88;5048924;28;20483;-68
2021/12/16 00:07:22;;;;;;;33.50;14.48;;;;;;;10.86;69.15;102682.31;5043723;28;20045;-69
2021/12/16 00:09:57;;;;;;;32.45;14.55;;;;;;;10.80;69.39;102688.56;5048798;28;20556;-69
2021/12/16 00:29:40;;;;;;;22.50;9.80;;;;;;;10.37;69.33;102682.47;5051732;28;20055;-69
2021/12/16 00:32:19;;;;;;;22.23;9.80;;;;;;;10.29;69.94;102680.00;5051490;28;20043;-69
2021/12/16 00:34:47;;;;;;;22.73;9.82;;;;;;;10.45;69.10;102684.06;5048191;28;20045;-69
2021/12/16 00:37:14;;;;;;;25.83;10.02;;;;;;;10.27;69.84;102687.91;5051624;28;20459;-69
2021/12/16 00:39:41;;;;;;;20.48;10.07;;;;;;;10.52;69.38;102688.28;5052494;28;20057;-69
2021/12/16 00:42:15;;;;;;;19.65;9.73;;;;;;;10.74;68.13;102694.81;5051799;28;20477;-69
2021/12/16 00:45:06;;;;;;;24.75;10.02;;;;;;;10.72;68.28;102690.47;5052446;28;20041;-69
2021/12/16 00:47:46;;;;;;;22.90;10.75;;;;;;;10.70;67.59;102682.66;5051965;28;20040;-69
2021/12/16 00:50:23;;;;;;;21.40;9.07;;;;;;;10.54;69.00;102686.47;5052286;28;20461;-69
2021/12/16 00:55:43;;;;;;;18.17;9.70;;;;;;;10.56;68.44;102694.34;5033984;28;20508;-68
2021/12/16 00:58:10;;;;;;;23.40;10.43;;;;;;;10.70;68.33;102693.16;5034414;28;20392;-68
2021/12/16 01:00:40;;;;;;;20.05;9.90;;;;;;;10.77;67.78;102695.63;5051874;28;20049;-68
2021/12/16 01:03:18;;;;;;;25.80;8.52;;;;;;;10.80;67.89;102692.94;5050620;28;20665;-69
2021/12/16 01:08:50;;;;;;;22.98;9.75;;;;;;;11.04;67.26;102702.91;5040704;28;20045;-68
2021/12/16 01:33:42;;;;;;;16.90;8.73;;;;;;;10.90;67.50;102718.09;5027501;28;20400;-68
2021/12/16 01:36:17;;;;;;;18.52;9.23;;;;;;;10.81;67.51;102715.66;5049374;28;20061;-68
2021/12/16 01:39:20;;;;;;;21.60;10.25;;;;;;;10.77;67.40;102719.25;5050474;28;20045;-68
2021/12/16 01:47:35;;;;;;;22.90;10.73;;;;;;;10.95;67.38;102718.84;5049864;28;20059;-68
2021/12/16 01:50:08;;;;;;;28.92;11.45;;;;;;;10.80;67.89;102720.03;5031218;28;20045;-68
2021/12/16 01:53:02;;;;;;;25.10;11.82;;;;;;;10.91;67.51;102733.81;5031153;28;20424;-68
2021/12/16 01:55:37;;;;;;;27.00;10.63;;;;;;;10.40;69.57;102720.00;5031502;28;20049;-69
2021/12/16 01:58:12;;;;;;;28.63;11.55;;;;;;;10.50;69.48;102721.53;5034782;28;20045;-68
2021/12/16 02:00:53;;;;;;;25.70;12.55;;;;;;;10.71;68.45;102720.25;5050439;28;20126;-68
2021/12/16 02:03:25;;;;;;;23.65;10.90;;;;;;;10.84;67.76;102716.47;5050888;28;20151;-68
2021/12/16 02:06:02;;;;;;;27.77;11.85;;;;;;;11.09;67.16;102717.66;5051017;28;20094;-68
2021/12/16 02:08:33;;;;;;;28.58;11.75;;;;;;;10.81;67.65;102716.53;5050862;28;20037;-68
2021/12/16 02:11:16;;;;;;;;;;;;;;;11.17;66.88;102720.09;5051080;28;20041;-68
2021/12/16 02:27:22;;;;;;;26.73;12.52;;;;;;;10.87;67.81;102726.03;5051829;28;19924;-69
2021/12/16 02:27:52;;;;;;;26.85;11.02;;;;;;;10.75;68.27;102720.13;5048543;28;20534;-67
2021/12/16 02:31:12;;;;;;;25.48;12.90;;;;;;;10.92;67.65;102722.41;5045618;28;20041;-67
2021/12/16 02:33:51;;;;;;;26.08;11.45;;;;;;;10.99;67.13;102724.00;5035426;28;20052;-67
2021/12/16 02:36:28;;;;;;;29.95;11.25;;;;;;;10.82;67.55;102722.66;5049092;28;20055;-67
2021/12/16 02:38:59;;;;;;;24.40;10.40;;;;;;;10.45;68.50;102718.16;5050003;28;20062;-67
2021/12/16 02:41:26;;;;;;;25.30;10.82;;;;;;;10.54;68.24;102717.09;5049026;28;20110;-67
2021/12/16 02:49:22;;;;;;;22.60;9.15;;;;;;;10.28;68.92;102714.97;5050025;28;20051;-67
2021/12/16 02:51:49;;;;;;;27.25;10.32;;;;;;;10.49;68.44;102717.22;5049768;28;24894;-67
2021/12/16 02:54:17;;;;;;;19.85;9.88;;;;;;;10.44;68.07;102716.44;5050050;28;20068;-68
2021/12/16 02:56:43;;;;;;;23.63;10.20;;;;;;;10.34;68.80;102714.00;5049612;28;20421;-68
2021/12/16 02:59:10;;;;;;;29.63;10.63;;;;;;;10.70;67.33;102719.38;5047922;28;20122;-68
2021/12/16 03:01:40;;;;;;;18.08;9.52;;;;;;;10.70;67.31;102710.66;5047607;28;20072;-68
2021/12/16 03:04:10;;;;;;;20.00;9.02;;;;;;;10.84;67.16;102723.47;5045962;28;20071;-68
2021/12/16 03:06:38;;;;;;;25.90;9.65;;;;;;;10.80;66.84;102720.03;5049255;28;20052;-68
2021/12/16 03:09:07;;;;;;;17.92;10.15;;;;;;;10.52;68.02;102717.16;5049556;28;20045;-68
2021/12/16 03:11:44;;;;;;;21.00;9.40;;;;;;;10.61;67.78;102724.81;5047187;28;20486;-68
2021/12/16 03:17:06;;;;;;;18.45;9.27;;;;;;;10.39;68.28;102722.63;5028507;28;20049;-68
2021/12/16 03:19:44;;;;;;;17.85;9.43;;;;;;;10.37;68.71;102725.31;5029443;28;20049;-68
2021/12/16 03:22:23;;;;;;;22.80;10.63;;;;;;;10.09;69.85;102724.03;5029623;28;20047;-68
2021/12/16 03:25:11;;;;;;;25.27;10.77;;;;;;;10.03;69.74;102725.03;5042901;28;20113;-68
2021/12/16 03:28:10;;;;;;;25.95;11.85;;;;;;;9.98;70.03;102726.00;5048531;28;20037;-68
2021/12/16 03:33:53;;;;;;;22.25;11.55;;;;;;;10.04;70.05;102713.66;5007004;28;20601;-68
2021/12/16 03:36:28;;;;;;;33.47;12.85;;;;;;;10.14;69.93;102715.25;5006878;28;20049;-68
2021/12/16 03:38:58;;;;;;;26.75;11.90;;;;;;;10.16;69.87;102710.00;5020652;28;20111;-68
2021/12/16 03:41:26;;;;;;;27.83;11.75;;;;;;;9.85;70.75;102711.38;5046808;28;20040;-68
2021/12/16 03:43:57;;;;;;;27.27;11.02;;;;;;;9.74;71.26;102709.81;5048603;28;20045;-68
2021/12/16 03:46:26;;;;;;;27.67;11.90;;;;;;;9.87;70.49;102713.09;5049024;28;20720;-68
2021/12/16 03:49:04;;;;;;;25.02;10.93;;;;;;;9.76;70.95;102710.66;5047421;28;20094;-68
2021/12/16 03:51:34;;;;;;;26.88;11.98;;;;;;;9.96;70.42;102719.94;5043391;28;20080;-68
2021/12/16 03:54:05;;;;;;;25.10;10.60;;;;;;;9.71;71.66;102724.72;5046949;28;20169;-68
2021/12/16 03:56:33;;;;;;;32.33;12.50;;;;;;;9.76;71.09;102715.88;5055289;28;20049;-68
2021/12/16 03:59:01;;;;;;;27.83;12.50;;;;;;;10.15;70.51;102713.50;5048281;28;20048;-68
2021/12/16 04:01:30;;;;;;;27.60;12.15;;;;;;;10.12;69.83;102710.91;5047262;28;20052;-68
2021/12/16 04:03:58;;;;;;;28.20;14.27;;;;;;;9.78;71.28;102713.25;5048992;28;20041;-68
2021/12/16 04:06:26;;;;;;;26.80;12.35;;;;;;;9.87;70.95;102720.06;5048648;28;20485;-69
2021/12/16 04:08:54;;;;;;;32.13;13.15;;;;;;;9.93;70.84;102723.47;5047898;28;20090;-68
2021/12/16 04:11:23;;;;;;;31.92;13.80;;;;;;;10.02;70.64;102730.28;5047847;28;20048;-68
2021/12/16 04:13:55;;;;;;;30.02;13.52;;;;;;;10.08;70.35;102730.19;5048445;28;20114;-68
2021/12/16 04:16:26;;;;;;;29.67;12.48;;;;;;;10.10;70.17;102733.66;5046701;28;20045;-68
2021/12/16 04:18:53;;;;;;;27.77;12.57;;;;;;;10.09;70.06;102737.16;5054469;28;20045;-68
2021/12/16 04:21:20;;;;;;;23.25;12.55;;;;;;;10.09;69.90;102735.41;5057094;28;20045;-68
2021/12/16 04:23:47;;;;;;;33.42;13.07;;;;;;;10.22;69.75;102734.34;5066347;28;20045;-68
2021/12/16 04:26:15;;;;;;;27.15;12.25;;;;;;;10.22;69.67;102730.84;5048381;28;20127;-68
2021/12/16 04:28:42;;;;;;;25.35;13.27;;;;;;;9.93;70.32;102735.72;5048129;28;20457;-68
2021/12/16 04:31:09;;;;;;;29.05;13.30;;;;;;;9.91;70.40;102745.34;5046925;28;20511;-68
2021/12/16 04:33:39;;;;;;;25.77;12.70;;;;;;;9.66;71.56;102740.53;5048700;28;20040;-68
2021/12/16 04:36:06;;;;;;;31.90;13.77;;;;;;;9.77;70.61;102748.19;5048632;28;20112;-68
2021/12/16 04:38:33;;;;;;;34.35;13.10;;;;;;;9.87;70.30;102741.03;5048208;28;20464;-68
2021/12/16 04:41:00;;;;;;;26.70;13.23;;;;;;;9.87;70.76;102743.66;5047545;28;20417;-69
2021/12/16 04:43:33;;;;;;;33.42;13.93;;;;;;;9.77;71.28;102743.81;5047996;28;20049;-68
2021/12/16 04:46:00;;;;;;;32.70;14.23;;;;;;;10.02;70.17;102744.25;5048147;28;20041;-68
2021/12/16 04:48:27;;;;;;;29.27;13.10;;;;;;;10.00;70.16;102739.94;5047826;28;20048;-68
2021/12/16 04:50:55;;;;;;;28.05;13.38;;;;;;;10.31;68.94;102741.13;5048509;28;20065;-68
2021/12/16 04:53:21;;;;;;;32.28;14.20;;;;;;;10.11;69.93;102746.72;5048439;28;20070;-68
2021/12/16 04:55:48;;;;;;;33.15;14.05;;;;;;;10.03;69.65;102746.00;5047602;28;20432;-68
2021/12/16 04:58:14;;;;;;;30.83;14.43;;;;;;;10.25;69.26;102738.66;5047952;28;20121;-68
2021/12/16 05:00:41;;;;;;;35.35;14.63;;;;;;;10.41;69.06;102742.72;5047109;28;20049;-69
2021/12/16 05:03:07;;;;;;;39.03;15.55;;;;;;;10.63;68.23;102749.28;5047978;28;20087;-69
2021/12/16 05:05:34;;;;;;;35.92;14.82;;;;;;;10.45;68.54;102749.63;5048208;28;20041;-69
2021/12/16 05:08:01;;;;;;;29.00;13.82;;;;;;;10.36;68.97;102743.69;5051016;28;20064;-69
2021/12/16 05:10:28;;;;;;;33.20;15.45;;;;;;;10.32;69.10;102748.13;5050938;28;20099;-69
2021/12/16 05:12:58;;;;;;;37.85;15.63;;;;;;;10.31;69.81;102750.78;5047950;28;20501;-69
2021/12/16 05:15:29;;;;;;;26.80;11.43;;;;;;;10.30;69.39;102749.91;5051842;28;20464;-69
2021/12/16 05:17:58;;;;;;;37.28;16.27;;;;;;;10.10;70.53;102754.63;5032547;28;20692;-69
2021/12/16 05:20:30;;;;;;;41.00;16.58;;;;;;;10.19;70.49;102762.34;5031757;28;20045;-69
2021/12/16 05:25:57;;;;;;;37.50;17.30;;;;;;;10.44;69.29;102762.75;5031777;28;20256;-68
2021/12/16 05:28:25;;;;;;;38.13;17.17;;;;;;;10.33;69.81;102756.84;5036370;28;20119;-68
2021/12/16 05:30:53;;;;;;;39.50;18.17;;;;;;;10.30;70.22;102770.03;5051671;28;20064;-68
2021/12/16 05:33:21;;;;;;;37.92;17.10;;;;;;;10.62;69.23;102770.28;5049381;28;20535;-68
2021/12/16 05:35:48;;;;;;;35.28;17.58;;;;;;;10.55;69.11;102776.53;5050996;28;20052;-69
2021/12/16 05:38:15;;;;;;;48.38;19.35;;;;;;;10.56;69.14;102779.16;5051319;28;20041;-69
2021/12/16 05:40:44;;;;;;;39.42;16.65;;;;;;;10.84;68.23;102781.19;5050611;28;20076;-69
2021/12/16 05:43:13;;;;;;;44.92;17.15;;;;;;;10.56;68.95;102787.00;5050842;28;20098;-68
2021/12/16 05:45:40;;;;;;;42.88;19.08;;;;;;;10.75;68.64;102785.72;5051076;28;20508;-68
2021/12/16 05:48:10;;;;;;;39.90;16.45;;;;;;;10.30;69.96;102799.75;5050995;28;20041;-68
2021/12/16 05:50:39;;;;;;;37.13;17.23;;;;;;;10.51;69.67;102796.72;5051179;28;20559;-68
2021/12/16 05:53:07;;;;;;;39.65;16.40;;;;;;;10.56;69.78;102799.25;5051195;28;20068;-68
2021/12/16 05:55:34;;;;;;;39.75;17.10;;;;;;;10.33;70.52;102794.44;5051256;28;20060;-68
2021/12/16 05:58:04;;;;;;;42.55;17.73;;;;;;;10.59;70.42;102793.94;5051352;28;20073;-68
2021/12/16 06:00:34;;;;;;;39.47;17.03;;;;;;;10.69;70.51;102788.50;5051119;28;20053;-68
2021/12/16 06:03:01;;;;;;;38.28;18.42;;;;;;;10.84;70.29;102796.94;5049478;28;20106;-69
2021/12/16 06:05:27;;;;;;;46.25;20.00;;;;;;;10.77;71.64;102816.34;5051091;28;20131;-70
2021/12/16 06:07:55;;;;;;;50.45;20.17;;;;;;;10.79;72.59;102815.41;5050852;28;20044;-72
2021/12/16 06:10:57;;;;;;;52.72;20.60;;;;;;;10.65;73.75;102820.94;5050549;28;20453;-72
2021/12/16 06:13:22;;;;;;;52.13;20.13;;;;;;;10.57;74.29;102827.19;5047159;28;20425;-72
2021/12/16 06:22:19;;;;;;;57.25;20.20;;;;;;;10.40;75.69;102831.91;5050774;28;20045;-72
2021/12/16 06:27:03;;;;;;;68.13;23.63;;;;;;;10.12;78.69;102834.97;5049910;28;20102;-71
2021/12/16 06:29:31;;;;;;;77.22;26.10;;;;;;;10.27;78.38;102833.88;5049775;28;20064;-72
2021/12/16 06:31:57;;;;;;;76.00;28.08;;;;;;;10.54;76.98;102836.00;5045627;28;20126;-71
2021/12/16 06:34:24;;;;;;;72.57;25.08;;;;;;;10.17;78.33;102833.16;5030595;28;20049;-71
2021/12/16 06:36:51;;;;;;;78.15;25.35;;;;;;;10.26;78.60;102837.38;5036742;28;20057;-70
2021/12/16 06:39:17;;;;;;;80.20;27.70;;;;;;;10.35;78.62;102855.56;5049281;28;20053;-70
2021/12/16 06:41:44;;;;;;;80.97;26.40;;;;;;;10.53;77.64;102857.03;5045956;28;20107;-70
2021/12/16 06:44:18;;;;;;;83.07;26.23;;;;;;;10.34;78.01;102850.38;5049233;28;20110;-70
2021/12/16 06:46:48;;;;;;;79.97;27.10;;;;;;;10.12;79.15;102849.84;5036458;28;20281;-70
2021/12/16 06:49:16;;;;;;;83.50;27.17;;;;;;;10.14;79.20;102856.81;5049533;28;20049;-70
2021/12/16 06:51:49;;;;;;;85.60;28.55;;;;;;;10.01;79.37;102850.00;5049420;28;20394;-70
2021/12/16 06:54:22;;;;;;;86.95;26.58;;;;;;;10.06;79.69;102849.91;5049457;28;20072;-70
2021/12/16 06:56:56;;;;;;;79.93;27.10;;;;;;;10.12;79.37;102844.59;5049773;28;20052;-67
2021/12/16 06:59:28;;;;;;;84.47;28.42;;;;;;;10.43;78.10;102851.06;5029927;28;20041;-66
2021/12/16 07:02:11;;;;;;;79.88;27.67;;;;;;;10.24;78.52;102842.66;5035562;28;20052;-69
2021/12/16 07:04:39;;;;;;;82.47;28.35;;;;;;;10.40;78.27;102840.63;5049334;28;20048;-69
2021/12/16 07:07:07;;;;;;;81.65;27.50;;;;;;;10.58;77.53;102855.16;5046324;28;20460;-68
2021/12/16 07:09:34;;;;;;;85.68;29.73;;;;;;;10.38;78.05;102846.81;5048946;28;20497;-68
2021/12/16 07:12:01;;;;;;;81.63;27.50;;;;;;;10.26;78.83;102863.63;5049385;28;20064;-68
2021/12/16 07:14:36;;;;;;;88.65;28.75;;;;;;;10.17;79.29;102869.84;5049270;28;20091;-68
2021/12/16 07:17:07;;;;;;;97.20;29.25;;;;;;;10.57;77.70;102867.41;5048978;28;20485;-68
2021/12/16 07:19:33;;;;;;;90.32;29.30;;;;;;;10.49;77.57;102871.09;5049181;28;20094;-68
2021/12/16 07:22:01;;;;;;;91.45;28.63;;;;;;;10.50;77.61;102881.53;5049453;28;20052;-68
2021/12/16 07:24:27;;;;;;;87.30;29.50;;;;;;;10.48;77.81;102885.97;5030472;28;20042;-68
2021/12/16 07:26:54;;;;;;;83.15;29.25;;;;;;;10.59;77.52;102880.53;5048048;28;20075;-68
2021/12/16 07:29:20;;;;;;;94.60;30.58;;;;;;;10.67;76.83;102886.50;5045883;28;20049;-69
2021/12/16 07:31:47;;;;;;;91.65;29.17;;;;;;;10.45;77.50;102888.63;5046613;28;20064;-68
2021/12/16 07:34:14;;;;;;;100.70;30.63;;;;;;;10.61;77.45;102890.09;5048721;28;20509;-67
2021/12/16 07:36:44;;;;;;;92.15;30.38;;;;;;;10.59;77.21;102885.78;5049096;28;20053;-68
2021/12/16 07:39:14;;;;;;;81.85;29.50;;;;;;;10.54;77.99;102893.72;5039365;28;20041;-67
2021/12/16 07:41:46;;;;;;;86.55;31.08;;;;;;;10.61;77.56;102899.72;5048123;28;20053;-68
2021/12/16 07:44:13;;;;;;;90.05;29.35;;;;;;;10.87;76.20;102897.47;5050809;28;20051;-67
2021/12/16 07:46:41;;;;;;;89.13;29.60;;;;;;;10.81;76.61;102909.84;5046412;28;20203;-68
2021/12/16 07:49:11;;;;;;;91.80;29.17;;;;;;;10.70;76.69;102910.94;5048593;28;20130;-67
2021/12/16 07:51:40;;;;;;;83.28;27.15;;;;;;;10.52;77.66;102915.63;5047218;28;20040;-67
2021/12/16 07:54:08;;;;;;;95.90;29.77;;;;;;;10.30;78.79;102917.75;5047886;28;20049;-66
2021/12/16 07:56:34;;;;;;;83.57;29.23;;;;;;;10.59;77.49;102928.59;5047125;28;20060;-66
2021/12/16 07:59:01;;;;;;;86.07;29.70;;;;;;;10.74;76.70;102930.97;5048309;28;20041;-66
2021/12/16 08:01:28;;;;;;;79.85;29.05;;;;;;;10.86;76.37;102929.91;5041590;28;20044;-66
2021/12/16 08:03:55;;;;;;;81.68;27.55;;;;;;;10.80;76.27;102935.22;5045899;28;20048;-66
2021/12/16 08:06:25;;;;;;;85.45;29.73;;;;;;;10.74;76.80;102937.97;5048625;28;20044;-66
2021/12/16 08:08:57;;;;;;;90.40;30.38;;;;;;;10.54;77.43;102940.94;5048441;28;20064;-67
2021/12/16 08:11:25;;;;;;;78.45;28.65;;;;;;;10.72;76.57;102948.47;5048289;28;20098;-66
2021/12/16 08:13:52;;;;;;;91.30;30.52;;;;;;;10.64;77.17;102947.75;5047521;28;20061;-66
2021/12/16 08:16:22;;;;;;;87.93;30.27;;;;;;;10.81;76.73;102946.59;5047934;28;20519;-67
2021/12/16 08:18:48;;;;;;;86.32;28.85;;;;;;;10.80;76.99;102939.59;5048352;28;20505;-66
2021/12/16 08:21:15;;;;;;;87.00;29.95;;;;;;;10.64;77.41;102946.91;5047738;28;20049;-67
2021/12/16 08:23:42;;;;;;;88.68;27.13;;;;;;;10.66;77.74;102940.72;5048340;28;20069;-67
2021/12/16 08:26:10;;;;;;;81.00;26.55;;;;;;;10.45;78.08;102954.22;5048441;28;20045;-65
2021/12/16 08:28:36;;;;;;;73.85;27.42;;;;;;;10.47;78.55;102946.28;5048342;28;20049;-66
2021/12/16 08:31:05;;;;;;;72.85;27.50;;;;;;;10.48;78.52;102937.53;5048353;28;20065;-66
2021/12/16 08:33:32;;;;;;;75.63;26.83;;;;;;;10.68;77.90;102936.31;5047044;28;20049;-67
2021/12/16 08:35:58;;;;;;;71.32;25.02;;;;;;;10.63;78.24;102939.91;5048230;28;20064;-66
2021/12/16 08:38:25;;;;;;;72.88;26.80;;;;;;;10.60;78.27;102932.97;5048125;28;20049;-66
2021/12/16 08:40:55;;;;;;;72.05;25.00;;;;;;;10.38;79.02;102935.97;5047081;28;20052;-67
2021/12/16 08:43:24;;;;;;;78.22;25.60;;;;;;;10.64;78.34;102949.53;5051495;28;20086;-67
2021/12/16 08:45:50;;;;;;;65.53;24.17;;;;;;;10.64;78.17;102944.28;5052095;28;20132;-66
2021/12/16 08:48:17;;;;;;;72.97;26.40;;;;;;;10.89;77.61;102939.47;5051961;28;20045;-66
2021/12/16 08:50:47;;;;;;;64.97;25.45;;;;;;;10.75;77.82;102944.97;5052873;28;20126;-65
2021/12/16 08:53:15;;;;;;;71.88;25.85;;;;;;;10.73;78.36;102938.84;5050564;28;20048;-66
2021/12/16 08:55:44;;;;;;;63.20;23.42;;;;;;;10.77;78.31;102939.66;5052599;28;20099;-66
2021/12/16 08:58:11;;;;;;;68.63;23.98;;;;;;;10.97;77.59;102948.06;5051940;28;20237;-65
2021/12/16 09:00:50;;;;;;;66.50;23.98;;;;;;;10.99;77.44;102954.13;5052094;28;20079;-66
2021/12/16 09:03:17;;;;;;;64.70;25.08;;;;;;;11.01;76.56;102960.25;5052379;28;20504;-68
2021/12/16 09:05:43;;;;;;;71.18;25.52;;;;;;;10.91;77.66;102961.28;5052562;28;20041;-66
2021/12/16 09:08:10;;;;;;;74.30;25.58;;;;;;;10.98;77.50;102976.03;5052498;28;20094;-66
2021/12/16 09:10:37;;;;;;;65.43;25.45;;;;;;;11.05;77.18;102981.13;5051609;28;20075;-67
2021/12/16 09:13:09;;;;;;;69.13;25.05;;;;;;;10.90;78.31;102977.94;5052515;28;20099;-67
2021/12/16 09:15:40;;;;;;;69.78;27.52;;;;;;;11.21;77.21;102977.34;5052149;28;20446;-66
2021/12/16 09:18:08;;;;;;;69.35;25.60;;;;;;;11.23;77.08;102987.84;5052811;28;20048;-67
2021/12/16 09:20:37;;;;;;;63.30;24.50;;;;;;;11.12;76.99;102981.91;5051946;28;20501;-67
2021/12/16 09:23:04;;;;;;;73.22;26.58;;;;;;;11.12;77.35;102976.66;5052287;28;20412;-66
2021/12/16 09:25:31;;;;;;;64.95;25.10;;;;;;;10.90;77.95;102976.16;5052584;28;20041;-66
2021/12/16 09:27:57;;;;;;;58.22;25.05;;;;;;;11.03;78.17;102979.44;5052836;28;20041;-67
2021/12/16 09:30:26;;;;;;;72.72;25.05;;;;;;;11.17;77.63;102983.56;5052654;28;20057;-67
2021/12/16 09:32:57;;;;;;;70.85;25.75;;;;;;;11.28;77.43;102982.47;5050976;28;20049;-67
2021/12/16 09:35:24;;;;;;;;;;;;;;;11.27;77.33;102999.16;5052737;28;20136;-66
2021/12/16 09:37:51;;;;;;;67.43;25.00;;;;;;;11.19;77.42;102992.28;5051655;28;19951;-67
2021/12/16 09:40:23;;;;;;;68.18;25.30;;;;;;;11.37;76.86;102998.94;5051262;28;20049;-66
2021/12/16 09:42:51;;;;;;;69.57;26.08;;;;;;;11.40;76.64;103006.75;5044997;28;20107;-67
2021/12/16 09:45:19;;;;;;;63.22;25.38;;;;;;;11.30;77.39;103009.59;5051489;28;20064;-63
2021/12/16 09:47:46;;;;;;;62.22;24.83;;;;;;;11.11;77.64;103007.31;5051790;28;20049;-66
2021/12/16 09:50:18;;;;;;;71.40;24.88;;;;;;;11.26;77.34;103013.16;5051768;28;20500;-67
2021/12/16 09:52:44;;;;;;;72.03;26.30;;;;;;;11.06;78.13;103016.13;5051307;28;20417;-65
2021/12/16 09:55:11;;;;;;;80.75;27.90;;;;;;;11.10;78.23;103023.06;5050972;28;20210;-66
2021/12/16 09:57:37;;;;;;;74.07;27.67;;;;;;;10.95;78.33;103008.47;5051126;28;20072;-67
2021/12/16 10:00:06;;;;;;;87.28;28.90;;;;;;;10.89;79.00;103008.56;5051443;28;20513;-66
2021/12/16 10:02:32;;;;;;;86.60;28.77;;;;;;;10.80;79.29;103013.97;5051283;28;20049;-66
2021/12/16 10:04:59;;;;;;;91.38;31.38;;;;;;;10.74;79.73;103008.81;5049431;28;20132;-67
2021/12/16 10:07:33;;;;;;;86.50;30.30;;;;;;;10.55;80.34;103004.75;5051411;28;20126;-67
2021/12/16 10:09:59;;;;;;;81.22;28.67;;;;;;;10.42;81.42;103009.31;5051386;28;20041;-67
2021/12/16 10:12:32;;;;;;;85.78;29.50;;;;;;;10.68;80.68;103009.78;5050989;28;20148;-66
2021/12/16 10:17:20;;;;;;;86.88;28.45;;;;;;;10.57;80.97;103010.84;5051359;28;20128;-66
2021/12/16 10:17:52;;;;;;;98.20;32.97;;;;;;;10.50;81.38;103017.06;5051134;28;20052;-66
2021/12/16 10:20:22;;;;;;;85.47;30.65;;;;;;;10.69;80.55;103014.13;5050957;28;20464;-68
2021/12/16 10:22:51;;;;;;;88.43;31.13;;;;;;;10.73;80.53;103018.44;5051027;28;20460;-67
2021/12/16 10:25:22;;;;;;;92.85;30.02;;;;;;;10.92;80.16;103012.88;5051273;28;20037;-67
2021/12/16 10:28:03;;;;;;;84.07;29.33;;;;;;;10.91;79.71;103014.66;5050090;28;20080;-67
2021/12/16 10:30:40;;;;;;;83.75;27.02;;;;;;;10.84;80.31;103017.41;5051922;28;20067;-68
2021/12/16 10:33:13;;;;;;;88.18;28.63;;;;;;;10.69;80.68;103026.38;5051221;28;20539;-67
2021/12/16 10:35:40;;;;;;;82.43;31.02;;;;;;;10.70;80.72;103026.38;5049325;28;20493;-66
2021/12/16 10:38:09;;;;;;;85.70;28.77;;;;;;;10.99;79.51;103017.16;5051097;28;20512;-67
2021/12/16 10:40:40;;;;;;;99.53;30.15;;;;;;;10.98;79.71;103024.16;5051162;28;20102;-67
2021/12/16 10:43:08;;;;;;;;;;;;;;;10.98;79.56;103020.66;5051608;28;20037;-66
2021/12/16 10:45:38;;;;;;;87.85;29.33;;;;;;;10.83;80.17;103028.81;5050690;28;19951;-67
2021/12/16 10:48:18;;;;;;;86.68;28.55;;;;;;;10.92;80.08;103028.66;5051508;28;20049;-67
2021/12/16 10:50:51;;;;;;;89.07;30.90;;;;;;;10.84;80.46;103030.53;5050168;28;20501;-67
2021/12/16 10:53:57;;;;;;;77.15;27.45;;;;;;;11.05;79.70;103024.91;5051000;28;20044;-67
2021/12/16 10:56:27;;;;;;;82.97;28.33;;;;;;;11.06;79.64;103026.66;5050945;28;20053;-69
2021/12/16 10:58:57;;;;;;;79.35;28.20;;;;;;;11.12;79.26;103037.06;5048647;28;20056;-67
2021/12/16 11:01:49;;;;;;;85.40;28.48;;;;;;;11.00;79.92;103038.13;5051075;28;20095;-68
2021/12/16 11:04:21;;;;;;;77.88;28.33;;;;;;;11.21;78.91;103032.50;5047952;28;20547;-68
2021/12/16 11:06:51;;;;;;;74.03;25.65;;;;;;;11.10;78.88;103033.56;5051478;28;20256;-69
2021/12/16 11:09:43;;;;;;;72.82;24.27;;;;;;;10.99;79.69;103035.53;5052104;28;20118;-68
2021/12/16 11:12:17;;;;;;;77.90;26.60;;;;;;;11.21;79.10;103042.13;5046170;28;20608;-69
2021/12/16 11:14:47;;;;;;;76.05;25.98;;;;;;;11.25;78.97;103041.19;5043395;28;20138;-69
2021/12/16 11:17:15;;;;;;;74.90;24.85;;;;;;;11.48;77.98;103039.00;5050607;28;20045;-69
2021/12/16 11:19:46;;;;;;;77.88;27.80;;;;;;;11.38;77.90;103036.59;5051011;28;20052;-68
2021/12/16 11:22:15;;;;;;;73.85;27.05;;;;;;;10.95;79.83;103033.84;5049345;28;20076;-69
2021/12/16 11:24:43;;;;;;;82.88;28.17;;;;;;;11.23;79.13;103032.47;5059304;28;20052;-69
2021/12/16 11:27:25;;;;;;;82.35;25.70;;;;;;;11.33;78.92;103039.28;5053709;28;20114;-69
2021/12/16 11:29:52;;;;;;;69.93;24.42;;;;;;;11.20;79.05;103029.88;5040940;28;20133;-69
2021/12/16 11:32:42;;;;;;;76.35;25.92;;;;;;;11.17;79.37;103029.94;5049077;28;20132;-69
2021/12/16 11:35:30;;;;;;;72.32;25.05;;;;;;;11.32;78.67;103027.03;5044810;28;20394;-68
2021/12/16 11:37:59;;;;;;;68.47;24.02;;;;;;;11.10;79.44;103036.19;5049860;28;20067;-68
2021/12/16 11:40:27;;;;;;;64.90;24.67;;;;;;;11.24;78.92;103042.06;5050600;28;20140;-69
2021/12/16 11:43:03;;;;;;;60.90;23.10;;;;;;;11.24;78.42;103044.69;5050606;28;20045;-70
2021/12/16 11:45:32;;;;;;;67.55;23.02;;;;;;;11.44;77.91;103044.34;5051162;28;20110;-68
2021/12/16 11:47:58;;;;;;;62.78;23.65;;;;;;;11.64;77.38;103037.78;5050789;28;20075;-69
2021/12/16 11:50:34;;;;;;;51.75;21.40;;;;;;;11.30;78.58;103047.22;5049958;28;20080;-69
2021/12/16 11:53:00;;;;;;;62.60;21.65;;;;;;;11.49;77.97;103050.38;5051200;28;20119;-68
2021/12/16 11:55:28;;;;;;;49.38;19.58;;;;;;;11.52;77.14;103052.94;5050658;28;20044;-69
2021/12/16 11:58:01;;;;;;;47.72;18.10;;;;;;;11.35;78.09;103050.63;5049450;28;20106;-68
2021/12/16 12:00:30;;;;;;;52.67;19.05;;;;;;;11.47;77.90;103055.66;5049147;28;20044;-66
2021/12/16 12:02:59;;;;;;;53.60;20.50;;;;;;;11.38;77.58;103066.31;5049562;28;20044;-67
2021/12/16 12:05:30;;;;;;;53.28;20.20;;;;;;;11.52;77.54;103063.47;5047855;28;20056;-67
2021/12/16 12:07:59;;;;;;;50.03;18.73;;;;;;;11.32;77.77;103061.19;5049798;28;20095;-68
2021/12/16 12:10:43;;;;;;;49.20;20.15;;;;;;;11.55;77.26;103071.28;5049680;28;20099;-68
2021/12/16 12:13:12;;;;;;;41.83;17.48;;;;;;;11.40;76.97;103074.19;5048579;28;20045;-68
2021/12/16 12:15:56;;;;;;;53.60;18.08;;;;;;;11.05;78.24;103069.53;5049040;28;20496;-67
2021/12/16 12:18:39;;;;;;;44.50;16.90;;;;;;;11.27;77.55;103086.66;5048600;28;20551;-68
2021/12/16 12:21:17;;;;;;;38.85;16.30;;;;;;;11.41;76.27;103084.69;5046958;28;20090;-67
2021/12/16 12:23:44;;;;;;;37.88;16.13;;;;;;;11.25;77.08;103091.09;5031802;28;20107;-67
2021/12/16 12:26:16;;;;;;;37.47;14.68;;;;;;;11.29;77.00;103084.88;5029121;28;20111;-67
2021/12/16 12:28:42;;;;;;;40.97;16.40;;;;;;;11.41;77.14;103104.81;5042527;28;20053;-67
2021/12/16 12:31:09;;;;;;;36.03;15.35;;;;;;;11.23;77.34;103104.22;5047897;28;20122;-67
2021/12/16 12:33:35;;;;;;;37.15;16.48;;;;;;;11.32;77.17;103105.84;5048948;28;20501;-67
2021/12/16 12:36:02;;;;;;;38.17;14.57;;;;;;;11.14;77.28;103100.91;5045336;28;20130;-68
2021/12/16 12:38:29;;;;;;;40.55;15.57;;;;;;;11.19;77.18;103101.72;5048383;28;20558;-68
2021/12/16 12:40:56;;;;;;;29.33;13.27;;;;;;;11.17;76.38;103099.09;5047942;28;20091;-67
2021/12/16 12:43:24;;;;;;;31.52;13.32;;;;;;;11.06;76.63;103100.16;5048535;28;20049;-67
2021/12/16 12:45:50;;;;;;;31.33;14.00;;;;;;;10.92;76.96;103099.50;5048588;28;20049;-67
2021/12/16 12:48:20;;;;;;;29.05;12.95;;;;;;;10.94;76.93;103087.25;5045566;28;20130;-67
2021/12/16 12:50:49;;;;;;;27.95;12.07;;;;;;;11.10;76.25;103073.84;5046003;28;20125;-67
2021/12/16 12:53:18;;;;;;;24.85;11.45;;;;;;;11.32;75.09;103082.19;5046671;28;20041;-67
2021/12/16 12:55:49;;;;;;;23.00;11.65;;;;;;;11.35;75.48;103082.13;5047958;28;20049;-67
2021/12/16 12:58:18;;;;;;;28.27;12.57;;;;;;;11.44;74.74;103089.88;5046078;28;20047;-67